Terminal Aerodrome Forecast
Issued by NWS

Home | Current Version | Previous Version | Text Only | Print | Product List | Glossary Off
Versions: 1 2 3 4 5 6 7 8 9 10 11 12 13 14 15 16 17 18 19 20 21 22 23 24

000
FTUS43 KGRB 282320
TAFAUW
TAF
KAUW 282320Z 2900/2924 VRB03KT P6SM SCT040 BKN080
     FM290700 VRB03KT 4SM BR SCT040 SCT080
      TEMPO 2908/2912 1 1/2SM BR SCT005
     FM291400 VRB03KT P6SM SCT015 BKN035
     FM291800 23006KT P6SM VCSH BKN035 BKN080
      TEMPO 2922/2924 3SM TSRA BR BKN025CB=

USA.gov is the U.S. government's official web portal to all federal, state and local government web resources and services.